Time;durP1;ratioP1;P1;durP2;ratioP2;P2;SDS_P1;SDS_P2;PMS_P1;PMS_P2;Temp;Humidity;BMP_temperature;BMP_pressure;BME280_temperature;BME280_humidity;BME280_pressure;Samples;Min_cycle;Max_cycle;Signal;HPM_P1;HPM_P2
2023/08/31 00:01:29;;;;;;;21.50;10.27;;;;;;;;;;5047958;28;20037;-57
2023/08/31 00:03:54;;;;;;;17.60;9.73;;;;;;;;;;5043397;28;20036;-57
2023/08/31 00:06:21;;;;;;;27.00;9.85;;;;;;;;;;5041504;28;20420;-58
2023/08/31 00:08:47;;;;;;;20.38;9.50;;;;;;;;;;5045728;28;20104;-57
2023/08/31 00:11:14;;;;;;;18.17;9.25;;;;;;;;;;5047947;28;20037;-58
2023/08/31 00:13:40;;;;;;;16.25;8.40;;;;;;;;;;5034992;28;20029;-57
2023/08/31 00:16:05;;;;;;;13.38;8.55;;;;;;;;;;5034408;28;20050;-57
2023/08/31 00:18:31;;;;;;;17.85;8.80;;;;;;;;;;5045130;28;20238;-57
2023/08/31 00:20:56;;;;;;;15.88;8.52;;;;;;;;;;5047729;28;20025;-56
2023/08/31 00:23:21;;;;;;;15.73;8.55;;;;;;;;;;5048098;28;20033;-58
2023/08/31 00:25:52;;;;;;;14.35;8.60;;;;;;;;;;5049225;28;20047;-58
2023/08/31 00:28:18;;;;;;;18.98;8.20;;;;;;;;;;5046302;28;20052;-55
2023/08/31 00:30:45;;;;;;;16.52;8.43;;;;;;;;;;5044923;28;20029;-57
2023/08/31 00:33:13;;;;;;;16.23;8.82;;;;;;;;;;5036954;28;20029;-57
2023/08/31 00:35:43;;;;;;;15.77;9.10;;;;;;;;;;5050177;28;20120;-56
2023/08/31 00:38:09;;;;;;;19.10;8.95;;;;;;;;;;5042761;28;20627;-58
2023/08/31 00:40:40;;;;;;;15.30;9.07;;;;;;;;;;5049340;28;20025;-57
2023/08/31 00:43:07;;;;;;;16.02;9.38;;;;;;;;;;5048972;28;20037;-57
2023/08/31 00:45:33;;;;;;;17.75;9.10;;;;;;;;;;5048082;28;20037;-57
2023/08/31 00:47:58;;;;;;;19.17;9.25;;;;;;;;;;5036314;28;20162;-57
2023/08/31 00:50:23;;;;;;;13.88;8.85;;;;;;;;;;5031051;28;20040;-57
2023/08/31 00:52:49;;;;;;;17.05;9.00;;;;;;;;;;5049329;28;20041;-57
2023/08/31 00:55:17;;;;;;;20.88;8.88;;;;;;;;;;5040690;28;20500;-57
2023/08/31 00:57:43;;;;;;;12.70;8.85;;;;;;;;;;5035358;28;20025;-57
2023/08/31 01:00:10;;;;;;;14.95;8.52;;;;;;;;;;5029603;28;20750;-56
2023/08/31 01:03:07;;;;;;;13.45;8.18;;;;;;;;;;5044827;28;20044;-57
2023/08/31 01:05:50;;;;;;;16.02;8.75;;;;;;;;;;5034915;28;20045;-57
2023/08/31 01:08:59;;;;;;;17.67;8.32;;;;;;;;;;5044538;28;20033;-56
2023/08/31 01:11:34;;;;;;;13.90;8.30;;;;;;;;;;5047381;28;20473;-56
2023/08/31 01:14:14;;;;;;;17.50;8.55;;;;;;;;;;5041681;28;20072;-57
2023/08/31 01:16:43;;;;;;;17.00;8.27;;;;;;;;;;5032679;28;20053;-58
2023/08/31 01:19:29;;;;;;;17.08;7.72;;;;;;;;;;5036455;28;20067;-57
2023/08/31 01:22:00;;;;;;;14.80;8.27;;;;;;;;;;5036901;28;20043;-57
2023/08/31 01:24:26;;;;;;;;;;;;;;;;;;5052668;28;20481;-55
2023/08/31 01:26:53;;;;;;;15.75;7.65;;;;;;;;;;5053541;28;20284;-59
2023/08/31 01:29:19;;;;;;;14.55;8.27;;;;;;;;;;5048802;28;20032;-58
2023/08/31 01:31:45;;;;;;;15.85;8.95;;;;;;;;;;5050180;28;20032;-55
2023/08/31 01:34:10;;;;;;;15.05;8.02;;;;;;;;;;5044767;28;20065;-57
2023/08/31 01:36:42;;;;;;;16.58;8.25;;;;;;;;;;5054266;28;20061;-58
2023/08/31 01:39:17;;;;;;;15.45;7.82;;;;;;;;;;5042931;28;20518;-56
2023/08/31 01:41:48;;;;;;;19.40;8.52;;;;;;;;;;5045003;28;20028;-57
2023/08/31 01:44:16;;;;;;;;;;;;;;;;;;5050114;28;20037;-57
2023/08/31 01:46:45;;;;;;;14.52;7.63;;;;;;;;;;5040950;28;19913;-57
2023/08/31 01:49:11;;;;;;;16.95;8.18;;;;;;;;;;5048349;28;20044;-57
2023/08/31 01:51:36;;;;;;;16.67;8.63;;;;;;;;;;5037372;28;20034;-57
2023/08/31 01:54:02;;;;;;;14.00;7.72;;;;;;;;;;5048988;28;20035;-58
2023/08/31 01:56:27;;;;;;;14.98;7.85;;;;;;;;;;5039828;28;20025;-57
2023/08/31 01:58:52;;;;;;;13.98;8.00;;;;;;;;;;5047214;28;20082;-57
2023/08/31 02:01:18;;;;;;;15.18;7.97;;;;;;;;;;5047842;28;20028;-57
2023/08/31 02:03:43;;;;;;;16.50;7.85;;;;;;;;;;5051770;28;20079;-58
2023/08/31 02:06:08;;;;;;;13.27;7.68;;;;;;;;;;5047277;28;20107;-57
2023/08/31 02:08:34;;;;;;;17.02;7.70;;;;;;;;;;5050558;28;20033;-58
2023/08/31 02:10:59;;;;;;;17.27;8.02;;;;;;;;;;5051391;28;20132;-57
2023/08/31 02:13:25;;;;;;;15.52;7.70;;;;;;;;;;5042411;28;20087;-58
2023/08/31 02:15:53;;;;;;;18.60;7.63;;;;;;;;;;5049064;28;20386;-58
2023/08/31 02:18:19;;;;;;;14.80;7.72;;;;;;;;;;5049959;28;20033;-57
2023/08/31 02:20:44;;;;;;;14.13;7.93;;;;;;;;;;5039520;28;20055;-58
2023/08/31 02:23:11;;;;;;;17.00;8.18;;;;;;;;;;5044890;28;20033;-58
2023/08/31 02:25:37;;;;;;;15.90;7.93;;;;;;;;;;5040238;28;20028;-58
2023/08/31 02:28:03;;;;;;;17.10;8.63;;;;;;;;;;5045632;28;20527;-58
2023/08/31 02:30:28;;;;;;;17.80;8.60;;;;;;;;;;5048761;28;20044;-58
2023/08/31 02:32:54;;;;;;;16.88;8.25;;;;;;;;;;5043742;28;20382;-58
2023/08/31 02:35:19;;;;;;;13.45;8.23;;;;;;;;;;5039065;28;20044;-56
2023/08/31 02:37:45;;;;;;;21.05;8.80;;;;;;;;;;5044098;28;20036;-58
2023/08/31 02:40:10;;;;;;;18.05;9.00;;;;;;;;;;5049874;28;20381;-58
2023/08/31 02:42:36;;;;;;;15.80;9.07;;;;;;;;;;5048920;28;20501;-56
2023/08/31 02:45:04;;;;;;;16.55;8.70;;;;;;;;;;5050398;28;20465;-56
2023/08/31 02:47:30;;;;;;;17.80;9.30;;;;;;;;;;5045436;28;20025;-57
2023/08/31 02:49:56;;;;;;;16.52;9.32;;;;;;;;;;5035333;28;20403;-58
2023/08/31 02:52:22;;;;;;;21.52;10.68;;;;;;;;;;5040226;28;20036;-58
2023/08/31 02:54:47;;;;;;;14.40;8.93;;;;;;;;;;5048339;28;20060;-56
2023/08/31 02:57:12;;;;;;;15.43;9.43;;;;;;;;;;5051893;28;20441;-57
2023/08/31 02:59:38;;;;;;;15.95;9.38;;;;;;;;;;5051295;28;20055;-56
2023/08/31 03:02:04;;;;;;;15.40;9.57;;;;;;;;;;5045107;28;20048;-59
2023/08/31 03:04:29;;;;;;;17.17;10.00;;;;;;;;;;5045229;28;20032;-58
2023/08/31 03:06:55;;;;;;;17.17;9.82;;;;;;;;;;5049019;28;20032;-57
2023/08/31 03:09:20;;;;;;;17.10;10.32;;;;;;;;;;5048797;28;20029;-57
2023/08/31 03:11:46;;;;;;;19.90;11.10;;;;;;;;;;5049461;28;20033;-58
2023/08/31 03:14:11;;;;;;;18.63;10.68;;;;;;;;;;5036194;28;20446;-58
2023/08/31 03:16:37;;;;;;;20.60;10.98;;;;;;;;;;5045432;28;20476;-58
2023/08/31 03:19:02;;;;;;;19.77;11.35;;;;;;;;;;5049522;28;20029;-59
2023/08/31 03:21:27;;;;;;;20.05;11.13;;;;;;;;;;5048841;28;21975;-55
2023/08/31 03:23:53;;;;;;;21.48;11.75;;;;;;;;;;5046854;28;20538;-58
2023/08/31 03:26:18;;;;;;;20.08;11.77;;;;;;;;;;5048668;28;20033;-57
2023/08/31 03:28:43;;;;;;;18.90;11.05;;;;;;;;;;5049507;28;20025;-58
2023/08/31 03:31:09;;;;;;;19.90;11.93;;;;;;;;;;5031741;28;20073;-58
2023/08/31 03:33:34;;;;;;;20.65;11.88;;;;;;;;;;5042622;28;20538;-58
2023/08/31 03:36:04;;;;;;;22.30;11.98;;;;;;;;;;5050469;28;20039;-57
2023/08/31 03:38:31;;;;;;;20.52;12.07;;;;;;;;;;5044405;28;20032;-57
2023/08/31 03:40:57;;;;;;;23.75;13.10;;;;;;;;;;5037578;28;20043;-59
2023/08/31 03:43:23;;;;;;;22.80;12.90;;;;;;;;;;5047683;28;20039;-58
2023/08/31 03:45:49;;;;;;;22.85;12.40;;;;;;;;;;5048401;28;20028;-58
2023/08/31 03:48:14;;;;;;;21.40;13.00;;;;;;;;;;5048651;28;20051;-58
2023/08/31 03:50:40;;;;;;;23.30;13.07;;;;;;;;;;5049907;28;20040;-57
2023/08/31 03:53:05;;;;;;;26.42;14.15;;;;;;;;;;5041694;28;20029;-60
2023/08/31 03:55:31;;;;;;;28.02;15.50;;;;;;;;;;5049014;28;20389;-56
2023/08/31 03:57:56;;;;;;;25.52;14.60;;;;;;;;;;5050344;28;20037;-58
2023/08/31 04:00:21;;;;;;;31.35;14.80;;;;;;;;;;5046737;28;20021;-56
2023/08/31 04:02:47;;;;;;;25.50;13.80;;;;;;;;;;5044060;28;20915;-58
2023/08/31 04:05:14;;;;;;;25.88;14.98;;;;;;;;;;5045682;28;20029;-58
2023/08/31 04:07:40;;;;;;;27.17;14.95;;;;;;;;;;5051794;28;20033;-58
2023/08/31 04:10:06;;;;;;;27.58;14.18;;;;;;;;;;5048076;28;20378;-57
2023/08/31 04:12:32;;;;;;;27.65;14.60;;;;;;;;;;5049198;28;20124;-57
2023/08/31 04:14:57;;;;;;;28.95;14.85;;;;;;;;;;5038225;28;20449;-58
2023/08/31 04:17:23;;;;;;;31.33;15.85;;;;;;;;;;5049326;28;20020;-57
2023/08/31 04:19:52;;;;;;;28.30;15.80;;;;;;;;;;5049995;28;20028;-58
2023/08/31 04:22:18;;;;;;;30.75;15.60;;;;;;;;;;5037685;28;20037;-57
2023/08/31 04:24:43;;;;;;;26.92;15.35;;;;;;;;;;5041266;28;20424;-57
2023/08/31 04:27:09;;;;;;;24.50;14.25;;;;;;;;;;5043291;28;20033;-56
2023/08/31 04:29:34;;;;;;;26.35;14.52;;;;;;;;;;5049769;28;20032;-58
2023/08/31 04:32:00;;;;;;;26.73;15.27;;;;;;;;;;5026238;28;20036;-56
2023/08/31 04:34:26;;;;;;;30.15;15.15;;;;;;;;;;5035754;28;20172;-58
2023/08/31 04:36:52;;;;;;;29.02;15.50;;;;;;;;;;5045703;28;20052;-58
2023/08/31 04:39:17;;;;;;;28.83;15.88;;;;;;;;;;5047146;28;20461;-58
2023/08/31 04:41:43;;;;;;;29.02;14.63;;;;;;;;;;5034793;28;20107;-57
2023/08/31 04:44:08;;;;;;;32.97;15.55;;;;;;;;;;5047309;28;20393;-58
2023/08/31 04:46:34;;;;;;;27.50;15.30;;;;;;;;;;5049049;28;20098;-56
2023/08/31 04:48:59;;;;;;;30.83;15.18;;;;;;;;;;5050248;28;20033;-56
2023/08/31 04:51:32;;;;;;;28.50;15.38;;;;;;;;;;5036582;28;20025;-55
2023/08/31 04:53:59;;;;;;;27.88;15.52;;;;;;;;;;5043834;28;20492;-58
2023/08/31 04:56:24;;;;;;;30.50;15.38;;;;;;;;;;5035413;28;20064;-58
2023/08/31 04:58:50;;;;;;;29.55;14.50;;;;;;;;;;5037331;28;20389;-55
2023/08/31 05:01:16;;;;;;;29.65;15.25;;;;;;;;;;5037515;28;20389;-56
2023/08/31 05:03:41;;;;;;;24.98;14.38;;;;;;;;;;5044835;28;20068;-56
2023/08/31 05:06:07;;;;;;;27.42;14.50;;;;;;;;;;5051453;28;20036;-57
2023/08/31 05:08:33;;;;;;;27.42;14.40;;;;;;;;;;5053233;28;20028;-57
2023/08/31 05:10:59;;;;;;;28.60;14.63;;;;;;;;;;5054697;28;20100;-56
2023/08/31 05:13:24;;;;;;;25.73;15.20;;;;;;;;;;5051874;28;20033;-57
2023/08/31 05:15:50;;;;;;;25.20;14.27;;;;;;;;;;5048247;28;20073;-58
2023/08/31 05:18:15;;;;;;;25.73;14.32;;;;;;;;;;5033523;28;20033;-58
2023/08/31 05:20:45;;;;;;;23.42;14.07;;;;;;;;;;5051248;28;20414;-58
2023/08/31 05:23:10;;;;;;;21.27;12.45;;;;;;;;;;5051843;28;20036;-58
2023/08/31 05:25:36;;;;;;;22.90;13.00;;;;;;;;;;5044310;28;20021;-55
2023/08/31 05:28:01;;;;;;;23.85;13.18;;;;;;;;;;5047657;28;20425;-57
2023/08/31 05:30:27;;;;;;;27.65;12.82;;;;;;;;;;5045981;28;20727;-56
2023/08/31 05:32:53;;;;;;;23.90;12.70;;;;;;;;;;5047025;28;20043;-55
2023/08/31 05:35:18;;;;;;;20.23;11.85;;;;;;;;;;5052234;28;20111;-57
2023/08/31 05:37:47;;;;;;;19.60;11.85;;;;;;;;;;5041350;28;20371;-56
2023/08/31 05:40:13;;;;;;;22.00;11.88;;;;;;;;;;5041125;28;20039;-58
2023/08/31 05:42:38;;;;;;;18.80;11.13;;;;;;;;;;5043508;28;20393;-57
2023/08/31 05:45:04;;;;;;;20.23;11.27;;;;;;;;;;5050026;28;20024;-57
2023/08/31 05:47:30;;;;;;;18.27;10.55;;;;;;;;;;5048962;28;20090;-56
2023/08/31 05:49:55;;;;;;;21.00;11.52;;;;;;;;;;5049204;28;20061;-57
2023/08/31 05:52:23;;;;;;;18.52;10.95;;;;;;;;;;5043246;28;20033;-56
2023/08/31 05:54:49;;;;;;;21.55;13.10;;;;;;;;;;5054229;28;20551;-56
2023/08/31 05:57:19;;;;;;;22.67;12.00;;;;;;;;;;5052398;28;20032;-57
2023/08/31 05:59:44;;;;;;;20.80;12.40;;;;;;;;;;5052837;28;20029;-54
2023/08/31 06:02:10;;;;;;;18.67;12.43;;;;;;;;;;5041044;28;20361;-56
2023/08/31 06:04:36;;;;;;;23.13;12.07;;;;;;;;;;5052343;28;20393;-53
2023/08/31 06:07:04;;;;;;;21.17;11.55;;;;;;;;;;5045128;28;20370;-55
2023/08/31 06:09:30;;;;;;;19.83;11.85;;;;;;;;;;5033847;28;20053;-52
2023/08/31 06:11:55;;;;;;;20.35;12.68;;;;;;;;;;5052365;28;20099;-55
2023/08/31 06:14:21;;;;;;;20.70;12.80;;;;;;;;;;5051769;28;20424;-55
2023/08/31 06:16:46;;;;;;;21.42;13.57;;;;;;;;;;5052541;28;20056;-57
2023/08/31 06:19:15;;;;;;;19.60;13.30;;;;;;;;;;5045457;28;20045;-57
2023/08/31 06:21:41;;;;;;;21.30;13.00;;;;;;;;;;5051013;28;20166;-55
2023/08/31 06:24:09;;;;;;;24.58;13.15;;;;;;;;;;5052896;28;20103;-57
2023/08/31 06:26:35;;;;;;;19.67;12.82;;;;;;;;;;5043035;28;20136;-54
2023/08/31 06:29:00;;;;;;;19.23;12.13;;;;;;;;;;5032939;28;20104;-57
2023/08/31 06:31:26;;;;;;;22.25;12.95;;;;;;;;;;5041874;28;20465;-61
2023/08/31 06:33:51;;;;;;;23.80;13.50;;;;;;;;;;5042815;28;20033;-62
2023/08/31 06:36:17;;;;;;;18.52;12.18;;;;;;;;;;5052036;28;20039;-61
2023/08/31 06:38:42;;;;;;;20.88;13.07;;;;;;;;;;5051971;28;20035;-61
2023/08/31 06:41:08;;;;;;;23.98;13.00;;;;;;;;;;5051359;28;20033;-61
2023/08/31 06:43:34;;;;;;;22.15;11.70;;;;;;;;;;5051317;28;20063;-61
2023/08/31 06:45:59;;;;;;;24.45;12.30;;;;;;;;;;5052204;28;20365;-61
2023/08/31 06:48:25;;;;;;;21.70;13.10;;;;;;;;;;5050833;28;20029;-63
2023/08/31 06:50:53;;;;;;;21.55;13.30;;;;;;;;;;5048856;28;20037;-61
2023/08/31 06:53:18;;;;;;;18.42;12.75;;;;;;;;;;5035492;28;20049;-62
2023/08/31 06:55:44;;;;;;;17.75;11.15;;;;;;;;;;5045530;28;20059;-61
2023/08/31 06:58:10;;;;;;;21.63;13.32;;;;;;;;;;5040183;28;20024;-62
2023/08/31 07:00:35;;;;;;;17.83;11.38;;;;;;;;;;5039327;28;20076;-61
2023/08/31 07:03:00;;;;;;;21.33;12.38;;;;;;;;;;5050327;28;20037;-61
2023/08/31 07:05:27;;;;;;;16.30;11.18;;;;;;;;;;5049976;28;20457;-61
2023/08/31 07:07:54;;;;;;;16.77;11.10;;;;;;;;;;5042754;28;20037;-61
2023/08/31 07:10:20;;;;;;;18.05;11.27;;;;;;;;;;5043511;28;20538;-61
2023/08/31 07:12:45;;;;;;;14.55;10.02;;;;;;;;;;5051377;28;20119;-61
2023/08/31 07:15:13;;;;;;;13.85;9.80;;;;;;;;;;5050642;28;20052;-61
2023/08/31 07:17:38;;;;;;;15.20;9.75;;;;;;;;;;5049596;28;20509;-62
2023/08/31 07:20:05;;;;;;;13.90;9.20;;;;;;;;;;5045957;28;20045;-61
2023/08/31 07:22:32;;;;;;;16.75;9.80;;;;;;;;;;5033586;28;20036;-61
2023/08/31 07:24:58;;;;;;;17.15;9.27;;;;;;;;;;5040370;28;20037;-61
2023/08/31 07:27:23;;;;;;;14.30;8.63;;;;;;;;;;5045453;28;20448;-61
2023/08/31 07:29:49;;;;;;;13.75;8.52;;;;;;;;;;5046650;28;20117;-61
2023/08/31 07:32:14;;;;;;;11.98;8.00;;;;;;;;;;5047375;28;20416;-61
2023/08/31 07:34:39;;;;;;;14.98;8.35;;;;;;;;;;5046556;28;20063;-61
2023/08/31 07:37:06;;;;;;;16.67;8.82;;;;;;;;;;5044194;28;20036;-61
2023/08/31 07:39:31;;;;;;;14.38;8.27;;;;;;;;;;5044251;28;20167;-61
2023/08/31 07:41:57;;;;;;;13.82;8.82;;;;;;;;;;5050725;28;20032;-61
2023/08/31 07:44:23;;;;;;;13.25;8.43;;;;;;;;;;5050186;28;20036;-61
2023/08/31 07:46:49;;;;;;;12.70;7.55;;;;;;;;;;5048657;28;20484;-61
2023/08/31 07:49:14;;;;;;;13.75;7.82;;;;;;;;;;5045704;28;20037;-61
2023/08/31 07:51:39;;;;;;;13.05;7.47;;;;;;;;;;5044638;28;20057;-61
2023/08/31 07:54:05;;;;;;;15.68;7.80;;;;;;;;;;5045305;28;20028;-61
2023/08/31 07:56:30;;;;;;;15.43;7.22;;;;;;;;;;5049052;28;20029;-61
2023/08/31 07:58:56;;;;;;;11.70;6.57;;;;;;;;;;5051796;28;20070;-61
2023/08/31 08:01:21;;;;;;;9.45;6.00;;;;;;;;;;5041479;28;20037;-61
2023/08/31 08:03:47;;;;;;;13.45;6.05;;;;;;;;;;5045582;28;20029;-61
2023/08/31 08:06:12;;;;;;;10.45;5.50;;;;;;;;;;5050115;28;20389;-61
2023/08/31 08:08:38;;;;;;;11.55;5.20;;;;;;;;;;5049395;28;20247;-61
2023/08/31 08:11:04;;;;;;;11.10;5.90;;;;;;;;;;5051496;28;20029;-61
2023/08/31 08:13:30;;;;;;;8.85;4.90;;;;;;;;;;5049112;28;20045;-61
2023/08/31 08:15:55;;;;;;;8.32;5.03;;;;;;;;;;5049843;28;20056;-61
2023/08/31 08:18:20;;;;;;;11.98;5.07;;;;;;;;;;5062884;28;20040;-61
2023/08/31 08:20:52;;;;;;;10.43;4.70;;;;;;;;;;5039801;28;20034;-61
2023/08/31 08:23:17;;;;;;;9.07;4.97;;;;;;;;;;5039724;28;20025;-61
2023/08/31 08:25:43;;;;;;;17.30;5.78;;;;;;;;;;5040538;28;20036;-61
2023/08/31 08:28:09;;;;;;;6.93;5.18;;;;;;;;;;5047112;28;20107;-61
2023/08/31 08:30:34;;;;;;;10.57;5.78;;;;;;;;;;5051392;28;20031;-61
2023/08/31 08:32:59;;;;;;;8.40;5.05;;;;;;;;;;5046010;28;20115;-61
2023/08/31 08:35:25;;;;;;;8.50;5.40;;;;;;;;;;5046480;28;20032;-61
2023/08/31 08:37:51;;;;;;;11.23;5.80;;;;;;;;;;5035298;28;20537;-61
2023/08/31 08:40:17;;;;;;;11.48;5.80;;;;;;;;;;5034901;28;20030;-62
2023/08/31 08:42:46;;;;;;;8.82;5.28;;;;;;;;;;5043432;28;20044;-61
2023/08/31 08:45:15;;;;;;;10.30;5.50;;;;;;;;;;5050178;28;20029;-61
2023/08/31 08:47:43;;;;;;;10.25;5.60;;;;;;;;;;5053258;28;20029;-58
2023/08/31 08:50:09;;;;;;;8.65;4.88;;;;;;;;;;5053095;28;20037;-61
2023/08/31 08:52:35;;;;;;;9.20;5.07;;;;;;;;;;5053367;28;20033;-60
2023/08/31 08:55:01;;;;;;;8.32;4.63;;;;;;;;;;5052622;28;20033;-60
2023/08/31 08:57:26;;;;;;;6.13;4.15;;;;;;;;;;5049926;28;20194;-60
2023/08/31 08:59:52;;;;;;;8.75;4.32;;;;;;;;;;5046533;28;20072;-60
2023/08/31 09:02:17;;;;;;;7.13;3.90;;;;;;;;;;5047469;28;20381;-60
2023/08/31 09:04:42;;;;;;;10.18;4.28;;;;;;;;;;5048744;28;20446;-61
2023/08/31 09:07:08;;;;;;;8.50;4.07;;;;;;;;;;5054683;28;20032;-61
2023/08/31 09:09:49;;;;;;;7.32;3.38;;;;;;;;;;5053044;28;20035;-61
2023/08/31 09:12:14;;;;;;;7.30;3.15;;;;;;;;;;5034994;28;20060;-61
2023/08/31 09:14:39;;;;;;;8.43;3.40;;;;;;;;;;5034189;28;20638;-61
2023/08/31 09:17:06;;;;;;;6.57;3.38;;;;;;;;;;5034382;28;20041;-61
2023/08/31 09:19:31;;;;;;;6.15;3.47;;;;;;;;;;5038471;28;20107;-61
2023/08/31 09:21:57;;;;;;;7.50;3.50;;;;;;;;;;5053104;28;20112;-61
2023/08/31 09:24:23;;;;;;;8.27;3.58;;;;;;;;;;5043214;28;20029;-61
2023/08/31 09:26:58;;;;;;;5.25;3.33;;;;;;;;;;5053036;28;20029;-61
2023/08/31 09:29:24;;;;;;;5.90;3.00;;;;;;;;;;5051809;28;20041;-61
2023/08/31 09:31:50;;;;;;;4.70;2.92;;;;;;;;;;5042520;28;20043;-61
2023/08/31 09:34:17;;;;;;;4.68;2.70;;;;;;;;;;5050457;28;20033;-61
2023/08/31 09:36:43;;;;;;;5.10;2.70;;;;;;;;;;5050388;28;20375;-62
2023/08/31 09:39:09;;;;;;;6.57;3.00;;;;;;;;;;5053485;28;20540;-61
2023/08/31 09:41:35;;;;;;;5.28;2.92;;;;;;;;;;5047434;28;20087;-62
2023/08/31 09:44:17;;;;;;;4.38;2.35;;;;;;;;;;5047557;28;20041;-62
2023/08/31 09:46:46;;;;;;;5.80;2.60;;;;;;;;;;5051300;28;20073;-61
2023/08/31 09:49:16;;;;;;;5.80;2.45;;;;;;;;;;5041827;28;20045;-62
2023/08/31 09:51:45;;;;;;;5.03;2.50;;;;;;;;;;5040233;28;20103;-61
2023/08/31 09:54:18;;;;;;;5.97;2.45;;;;;;;;;;5043057;28;20036;-61
2023/08/31 09:56:45;;;;;;;3.90;2.15;;;;;;;;;;5043688;28;20075;-62
2023/08/31 09:59:12;;;;;;;5.85;2.40;;;;;;;;;;5044257;28;20055;-61
2023/08/31 10:01:38;;;;;;;8.32;2.58;;;;;;;;;;5038613;28;20090;-62
2023/08/31 10:04:08;;;;;;;7.10;2.10;;;;;;;;;;5048844;28;20033;-61
2023/08/31 10:06:35;;;;;;;3.38;2.25;;;;;;;;;;5042568;28;20025;-61
2023/08/31 10:09:02;;;;;;;4.25;2.30;;;;;;;;;;5049801;28;20029;-61
2023/08/31 10:11:29;;;;;;;7.05;3.03;;;;;;;;;;5034433;28;20121;-61
2023/08/31 10:13:55;;;;;;;5.53;2.70;;;;;;;;;;5051164;28;20554;-61
2023/08/31 10:16:21;;;;;;;3.45;2.00;;;;;;;;;;5053841;28;20143;-61
2023/08/31 10:18:48;;;;;;;3.53;1.80;;;;;;;;;;5051273;28;20044;-61
2023/08/31 10:21:18;;;;;;;3.38;2.20;;;;;;;;;;5034808;28;20033;-61
2023/08/31 10:23:50;;;;;;;7.57;2.47;;;;;;;;;;5045934;28;20170;-61
2023/08/31 10:26:29;;;;;;;5.35;2.70;;;;;;;;;;5053361;28;20055;-61
2023/08/31 10:28:56;;;;;;;6.95;2.92;;;;;;;;;;5041819;28;20044;-64
2023/08/31 10:31:22;;;;;;;7.75;3.13;;;;;;;;;;5047314;28;20404;-64
2023/08/31 10:33:55;;;;;;;6.10;3.10;;;;;;;;;;5052039;28;20040;-63
2023/08/31 10:36:20;;;;;;;5.28;3.20;;;;;;;;;;5053486;28;20033;-63
2023/08/31 10:39:00;;;;;;;6.38;3.35;;;;;;;;;;5045049;28;20024;-63
2023/08/31 10:41:33;;;;;;;5.47;3.40;;;;;;;;;;5042316;28;20090;-62
2023/08/31 10:43:59;;;;;;;4.97;2.70;;;;;;;;;;5052937;28;20103;-62
2023/08/31 10:46:35;;;;;;;6.68;2.70;;;;;;;;;;5051944;28;20036;-62
2023/08/31 10:49:14;;;;;;;6.82;3.00;;;;;;;;;;5052253;28;20029;-63
2023/08/31 10:51:48;;;;;;;6.38;2.90;;;;;;;;;;5050666;28;20487;-62
2023/08/31 10:54:30;;;;;;;7.53;3.17;;;;;;;;;;5036945;28;20047;-63
2023/08/31 10:57:08;;;;;;;6.22;3.55;;;;;;;;;;5039735;28;20068;-61
2023/08/31 10:59:45;;;;;;;4.97;3.33;;;;;;;;;;5046666;28;20040;-62
2023/08/31 11:02:28;;;;;;;6.07;3.17;;;;;;;;;;5042847;28;20143;-62
2023/08/31 11:04:54;;;;;;;4.90;3.28;;;;;;;;;;5040972;28;20025;-62
2023/08/31 11:07:25;;;;;;;6.38;3.40;;;;;;;;;;5044746;28;20118;-62
2023/08/31 11:09:50;;;;;;;8.18;4.07;;;;;;;;;;5046299;28;20028;-64
2023/08/31 11:12:16;;;;;;;5.68;3.22;;;;;;;;;;5052493;28;20041;-63
2023/08/31 11:14:42;;;;;;;7.53;3.30;;;;;;;;;;5048510;28;20124;-63
2023/08/31 11:17:08;;;;;;;7.45;3.28;;;;;;;;;;5049774;28;20384;-63
2023/08/31 11:19:35;;;;;;;6.97;2.97;;;;;;;;;;5050055;28;20442;-63
2023/08/31 11:22:04;;;;;;;5.35;2.97;;;;;;;;;;5051701;28;20458;-64
2023/08/31 11:24:33;;;;;;;4.07;2.45;;;;;;;;;;5050863;28;20036;-63
2023/08/31 11:26:59;;;;;;;7.75;2.72;;;;;;;;;;5048914;28;20043;-65
2023/08/31 11:29:25;;;;;;;4.63;2.33;;;;;;;;;;5047091;28;20032;-65
2023/08/31 11:31:53;;;;;;;5.75;2.38;;;;;;;;;;5044208;28;20037;-66
2023/08/31 11:34:19;;;;;;;5.05;2.25;;;;;;;;;;5051011;28;20032;-66
2023/08/31 11:36:46;;;;;;;5.00;2.08;;;;;;;;;;5050613;28;20044;-64
2023/08/31 11:39:12;;;;;;;5.65;2.20;;;;;;;;;;5049837;28;20536;-62
2023/08/31 11:41:41;;;;;;;4.85;2.00;;;;;;;;;;5044156;28;20033;-61
2023/08/31 11:44:12;;;;;;;4.20;2.13;;;;;;;;;;5035912;28;20112;-60
2023/08/31 11:46:39;;;;;;;5.22;2.30;;;;;;;;;;5035839;28;20037;-60
2023/08/31 11:49:06;;;;;;;6.60;2.38;;;;;;;;;;5049680;28;20028;-60
2023/08/31 11:51:33;;;;;;;4.13;2.33;;;;;;;;;;5049353;28;20037;-61
2023/08/31 11:54:02;;;;;;;5.50;2.33;;;;;;;;;;5049975;28;20354;-60
2023/08/31 11:56:38;;;;;;;4.00;2.10;;;;;;;;;;5031736;28;20041;-60
2023/08/31 11:59:07;;;;;;;4.47;2.15;;;;;;;;;;5042871;28;20040;-60
2023/08/31 12:01:33;;;;;;;5.13;2.10;;;;;;;;;;5048084;28;20167;-60
2023/08/31 12:03:58;;;;;;;7.10;2.30;;;;;;;;;;5043473;28;20137;-61
2023/08/31 12:06:23;;;;;;;4.00;2.08;;;;;;;;;;5042217;28;20040;-60
2023/08/31 12:08:49;;;;;;;2.58;2.05;;;;;;;;;;5049438;28;20587;-60
2023/08/31 12:11:18;;;;;;;4.80;2.35;;;;;;;;;;5048550;28;20039;-60
2023/08/31 12:13:45;;;;;;;5.57;2.20;;;;;;;;;;5049276;28;20040;-60
2023/08/31 12:16:13;;;;;;;4.28;2.20;;;;;;;;;;5051632;28;20131;-60
2023/08/31 12:18:39;;;;;;;3.25;2.13;;;;;;;;;;5050038;28;20033;-61
2023/08/31 12:21:06;;;;;;;4.80;2.10;;;;;;;;;;5049489;28;20071;-60
2023/08/31 12:23:31;;;;;;;3.50;2.25;;;;;;;;;;5051211;28;20098;-60
2023/08/31 12:25:57;;;;;;;6.20;2.10;;;;;;;;;;5038043;28;20033;-60
2023/08/31 12:28:23;;;;;;;5.20;2.10;;;;;;;;;;5030262;28;20060;-60
2023/08/31 12:30:50;;;;;;;4.80;2.17;;;;;;;;;;5040697;28;20021;-61
2023/08/31 12:33:17;;;;;;;5.93;2.33;;;;;;;;;;5049945;28;20037;-60
2023/08/31 12:35:43;;;;;;;5.35;2.35;;;;;;;;;;5047976;28;20113;-60
2023/08/31 12:38:08;;;;;;;4.47;2.30;;;;;;;;;;5047124;28;20116;-60
2023/08/31 12:40:33;;;;;;;2.75;1.80;;;;;;;;;;5050394;28;20033;-60
2023/08/31 12:42:59;;;;;;;3.33;1.83;;;;;;;;;;5050476;28;20033;-60
2023/08/31 12:45:24;;;;;;;3.72;1.90;;;;;;;;;;5041986;28;20113;-60
2023/08/31 12:47:50;;;;;;;4.50;2.10;;;;;;;;;;5033561;28;20025;-60
2023/08/31 12:50:15;;;;;;;6.47;1.98;;;;;;;;;;5047573;28;20025;-60
2023/08/31 12:52:45;;;;;;;4.18;1.88;;;;;;;;;;5049339;28;20044;-60
2023/08/31 12:55:12;;;;;;;6.95;2.00;;;;;;;;;;5040452;28;20033;-60
2023/08/31 12:57:37;;;;;;;3.65;1.70;;;;;;;;;;5031483;28;21945;-60
2023/08/31 13:00:09;;;;;;;2.60;1.33;;;;;;;;;;5048359;28;20036;-60
2023/08/31 13:02:34;;;;;;;4.70;1.50;;;;;;;;;;5047730;28;20194;-60
2023/08/31 13:04:59;;;;;;;3.50;1.80;;;;;;;;;;5049256;28;20104;-60
2023/08/31 13:07:25;;;;;;;5.78;2.15;;;;;;;;;;5049515;28;20409;-60
2023/08/31 13:09:50;;;;;;;4.55;1.90;;;;;;;;;;5048566;28;20127;-59
2023/08/31 13:12:16;;;;;;;5.70;2.42;;;;;;;;;;5050282;28;20060;-60
2023/08/31 13:14:43;;;;;;;4.45;2.20;;;;;;;;;;5049354;28;20427;-60
2023/08/31 13:17:09;;;;;;;5.38;2.00;;;;;;;;;;5053291;28;20473;-59
2023/08/31 13:19:34;;;;;;;4.57;2.05;;;;;;;;;;5053084;28;20033;-61
2023/08/31 13:22:00;;;;;;;5.55;1.90;;;;;;;;;;5049345;28;20033;-60
2023/08/31 13:24:25;;;;;;;3.22;1.90;;;;;;;;;;5047178;28;20025;-60
2023/08/31 13:26:50;;;;;;;3.60;1.90;;;;;;;;;;5035464;28;20040;-61
2023/08/31 13:29:16;;;;;;;4.40;2.03;;;;;;;;;;5048076;28;20435;-61
2023/08/31 13:31:42;;;;;;;3.67;2.10;;;;;;;;;;5035790;28;20080;-60
2023/08/31 13:34:07;;;;;;;5.05;2.15;;;;;;;;;;5034358;28;20529;-61
2023/08/31 13:36:34;;;;;;;4.22;1.90;;;;;;;;;;5048423;28;20020;-60
2023/08/31 13:38:59;;;;;;;5.47;1.85;;;;;;;;;;5053389;28;20033;-60
2023/08/31 13:41:25;;;;;;;5.25;2.30;;;;;;;;;;5045685;28;20063;-60
2023/08/31 13:43:51;;;;;;;5.32;2.42;;;;;;;;;;5053357;28;20059;-60
2023/08/31 13:46:17;;;;;;;3.13;2.10;;;;;;;;;;5048804;28;20033;-61
2023/08/31 13:48:42;;;;;;;4.90;2.22;;;;;;;;;;5052985;28;20063;-61
2023/08/31 13:51:07;;;;;;;4.45;2.28;;;;;;;;;;5052848;28;20028;-60
2023/08/31 13:53:34;;;;;;;2.85;2.10;;;;;;;;;;5048296;28;20101;-60
2023/08/31 13:55:59;;;;;;;3.28;2.08;;;;;;;;;;5039832;28;20120;-60
2023/08/31 13:58:24;;;;;;;6.95;2.33;;;;;;;;;;5046325;28;20113;-60
2023/08/31 14:00:50;;;;;;;4.32;2.20;;;;;;;;;;5033276;28;20029;-60
2023/08/31 14:03:16;;;;;;;3.55;2.22;;;;;;;;;;5065581;28;20030;-61
2023/08/31 14:05:42;;;;;;;5.13;2.33;;;;;;;;;;5033123;28;20029;-62
2023/08/31 14:08:08;;;;;;;3.72;2.70;;;;;;;;;;5032891;28;20025;-60
2023/08/31 14:10:33;;;;;;;4.05;2.35;;;;;;;;;;5033239;28;20474;-60
2023/08/31 14:12:59;;;;;;;5.80;2.40;;;;;;;;;;5032658;28;20358;-60
2023/08/31 14:15:26;;;;;;;4.63;2.75;;;;;;;;;;5036214;28;20128;-60
2023/08/31 14:17:53;;;;;;;4.75;2.40;;;;;;;;;;5033196;28;20037;-60
2023/08/31 14:20:18;;;;;;;4.97;2.45;;;;;;;;;;5033907;28;20026;-60
2023/08/31 14:22:45;;;;;;;3.70;2.30;;;;;;;;;;5034572;28;20373;-60
2023/08/31 14:25:11;;;;;;;3.95;2.40;;;;;;;;;;5034004;28;20031;-60
2023/08/31 14:27:37;;;;;;;4.00;2.28;;;;;;;;;;5068126;28;20037;-60
2023/08/31 14:30:04;;;;;;;4.88;2.20;;;;;;;;;;5052429;28;20052;-60